createdAt,value
2018-08-09T00:01:00.906Z,14.53
2018-08-09T00:03:29.058Z,14.60
2018-08-09T00:05:57.205Z,15.80
2018-08-09T00:08:25.348Z,15.83
2018-08-09T00:10:53.480Z,15.40
2018-08-09T00:13:21.649Z,15.53
2018-08-09T00:15:49.830Z,15.83
2018-08-09T00:18:17.966Z,16.80
2018-08-09T00:20:46.154Z,17.80
2018-08-09T00:23:14.289Z,18.30
2018-08-09T00:25:42.429Z,16.23
2018-08-09T00:28:10.642Z,16.93
2018-08-09T00:30:38.831Z,16.83
2018-08-09T00:33:07.005Z,15.13
2018-08-09T00:35:35.157Z,16.40
2018-08-09T00:38:03.301Z,16.13
2018-08-09T00:40:31.497Z,16.67
2018-08-09T00:42:59.645Z,17.97
2018-08-09T00:45:27.803Z,19.50
2018-08-09T00:47:55.933Z,19.17
2018-08-09T00:50:24.079Z,20.30
2018-08-09T00:52:52.214Z,18.97
2018-08-09T00:55:20.374Z,19.10
2018-08-09T00:57:48.497Z,20.40
2018-08-09T01:00:16.661Z,19.73
2018-08-09T01:02:44.808Z,22.53
2018-08-09T01:05:12.973Z,19.70
2018-08-09T01:07:41.109Z,21.37
2018-08-09T01:10:09.262Z,18.63
2018-08-09T01:12:37.406Z,17.63
2018-08-09T01:15:05.643Z,19.70
2018-08-09T01:17:33.798Z,18.07
2018-08-09T01:20:02.130Z,20.03
2018-08-09T01:22:30.282Z,19.23
2018-08-09T01:24:58.412Z,19.67
2018-08-09T01:27:26.548Z,19.63
2018-08-09T01:29:56.743Z,19.53
2018-08-09T01:32:24.893Z,20.27
2018-08-09T01:34:53.062Z,21.53
2018-08-09T01:37:21.223Z,21.00
2018-08-09T01:39:49.396Z,19.47
2018-08-09T01:42:28.905Z,20.97
2018-08-09T01:44:57.110Z,22.23
2018-08-09T01:47:25.254Z,20.97
2018-08-09T01:49:53.429Z,22.67
2018-08-09T01:52:21.600Z,21.27
2018-08-09T01:54:49.785Z,22.40
2018-08-09T01:57:17.938Z,20.80
2018-08-09T01:59:46.117Z,20.50
2018-08-09T02:02:14.257Z,19.80
2018-08-09T02:04:42.453Z,21.10
2018-08-09T02:07:11.470Z,20.57
2018-08-09T02:09:39.638Z,22.17
2018-08-09T02:12:07.825Z,23.63
2018-08-09T02:14:35.977Z,22.00
2018-08-09T02:17:04.138Z,23.60
2018-08-09T02:19:32.263Z,23.03
2018-08-09T02:22:00.412Z,21.20
2018-08-09T02:24:28.553Z,23.07
2018-08-09T02:26:57.920Z,22.07
2018-08-09T02:29:26.134Z,22.20
2018-08-09T02:31:54.270Z,22.27
2018-08-09T02:34:22.389Z,24.90
2018-08-09T02:36:50.524Z,25.10
2018-08-09T02:39:18.641Z,25.00
2018-08-09T02:41:46.784Z,25.63
2018-08-09T02:44:14.904Z,23.50
2018-08-09T02:46:43.044Z,23.20
2018-08-09T02:49:11.179Z,24.03
2018-08-09T02:51:39.313Z,24.67
2018-08-09T02:54:07.434Z,25.20
2018-08-09T02:56:35.614Z,24.53
2018-08-09T02:59:03.745Z,23.07
2018-08-09T03:01:31.883Z,26.97
2018-08-09T03:04:00.001Z,25.00
2018-08-09T03:06:28.136Z,26.47
2018-08-09T03:08:56.267Z,25.40
2018-08-09T03:11:24.398Z,23.43
2018-08-09T03:13:52.528Z,26.40
2018-08-09T03:16:20.673Z,25.93
2018-08-09T03:18:48.798Z,25.30
2018-08-09T03:21:16.930Z,24.60
2018-08-09T03:23:45.052Z,24.40
2018-08-09T03:26:13.194Z,26.20
2018-08-09T03:28:41.322Z,24.53
2018-08-09T03:31:09.458Z,24.53
2018-08-09T03:33:37.569Z,26.20
2018-08-09T03:36:05.775Z,26.00
2018-08-09T03:38:33.910Z,26.93
2018-08-09T03:41:02.050Z,24.43
2018-08-09T03:43:30.173Z,26.57
2018-08-09T03:45:58.315Z,27.90
2018-08-09T03:48:26.447Z,28.20
2018-08-09T03:50:54.594Z,27.90
2018-08-09T03:53:22.713Z,25.27
2018-08-09T03:55:50.838Z,28.00
2018-08-09T03:58:19.048Z,30.00
2018-08-09T04:00:47.135Z,29.20
2018-08-09T04:03:15.274Z,27.67
2018-08-09T04:05:43.387Z,29.50
2018-08-09T04:08:11.517Z,29.70
2018-08-09T04:10:39.650Z,28.80
2018-08-09T04:13:07.769Z,29.27
2018-08-09T04:15:35.908Z,31.10
2018-08-09T04:18:04.534Z,29.27
2018-08-09T04:20:32.645Z,28.70
2018-08-09T04:23:00.787Z,29.60
2018-08-09T04:25:28.915Z,28.30
2018-08-09T04:27:57.038Z,27.43
2018-08-09T04:30:25.174Z,26.10
2018-08-09T04:32:53.319Z,27.73
2018-08-09T04:35:21.441Z,26.70
2018-08-09T04:37:49.623Z,27.93
2018-08-09T04:40:17.806Z,25.90
2018-08-09T04:42:46.023Z,26.47
2018-08-09T04:45:14.248Z,26.83
2018-08-09T04:47:42.460Z,25.30
2018-08-09T04:50:10.688Z,26.27
2018-08-09T04:52:38.867Z,26.10
2018-08-09T04:55:07.042Z,26.37
2018-08-09T04:57:35.194Z,25.67
2018-08-09T05:00:03.415Z,24.67
2018-08-09T05:02:31.565Z,25.03
2018-08-09T05:04:59.750Z,25.40
2018-08-09T05:07:27.881Z,24.77
2018-08-09T05:09:59.606Z,25.37
2018-08-09T05:12:27.741Z,23.20
2018-08-09T05:14:55.903Z,22.93
2018-08-09T05:17:24.130Z,23.57
2018-08-09T05:19:52.282Z,23.80
2018-08-09T05:22:20.457Z,23.87
2018-08-09T05:24:48.630Z,24.30
2018-08-09T05:27:16.821Z,23.50
2018-08-09T05:29:44.958Z,23.50
2018-08-09T05:32:13.136Z,22.67
2018-08-09T05:34:41.315Z,23.60
2018-08-09T05:37:10.090Z,22.67
2018-08-09T05:39:38.291Z,20.37
2018-08-09T05:42:06.608Z,21.03
2018-08-09T05:44:34.764Z,20.63
2018-08-09T05:47:02.933Z,21.93
2018-08-09T05:49:31.410Z,20.10
2018-08-09T05:51:59.542Z,19.37
2018-08-09T05:54:27.674Z,18.07
2018-08-09T05:56:55.826Z,18.33
2018-08-09T05:59:24.077Z,18.70
2018-08-09T06:01:52.218Z,18.63
2018-08-09T06:04:20.354Z,17.60
2018-08-09T06:06:48.483Z,18.53
2018-08-09T06:09:16.623Z,16.80
2018-08-09T06:11:44.769Z,17.17
2018-08-09T06:14:12.901Z,18.43
2018-08-09T06:16:41.201Z,17.70
2018-08-09T06:19:09.338Z,18.73
2018-08-09T06:21:37.448Z,16.23
2018-08-09T06:24:05.591Z,15.90
2018-08-09T06:26:33.756Z,17.43
2018-08-09T06:29:01.871Z,16.30
2018-08-09T06:31:29.993Z,16.13
2018-08-09T06:33:58.124Z,14.30
2018-08-09T06:36:26.356Z,14.57
2018-08-09T06:38:54.511Z,15.77
2018-08-09T06:41:23.637Z,14.67
2018-08-09T06:43:51.769Z,14.17
2018-08-09T06:46:19.899Z,14.23
2018-08-09T06:48:48.034Z,14.63
2018-08-09T06:51:16.158Z,15.03
2018-08-09T06:53:44.554Z,14.83
2018-08-09T06:56:12.689Z,14.43
2018-08-09T06:58:40.804Z,14.30
2018-08-09T07:01:08.930Z,13.20
2018-08-09T07:03:37.053Z,20.33
2018-08-09T07:06:05.278Z,14.50
2018-08-09T07:08:33.409Z,12.43
2018-08-09T07:11:01.538Z,13.87
2018-08-09T07:13:29.677Z,13.20
2018-08-09T07:15:57.809Z,14.07
2018-08-09T07:18:25.949Z,13.40
2018-08-09T07:20:54.074Z,15.57
2018-08-09T07:23:22.219Z,14.20
2018-08-09T07:25:50.349Z,13.50
2018-08-09T07:28:18.489Z,14.30
2018-08-09T07:30:46.639Z,13.20
2018-08-09T07:33:15.597Z,14.00
2018-08-09T07:35:43.734Z,14.50
2018-08-09T07:38:11.882Z,12.80
2018-08-09T07:40:40.055Z,13.50
2018-08-09T07:43:08.204Z,11.60
2018-08-09T07:45:36.347Z,12.77
2018-08-09T07:48:04.489Z,13.77
2018-08-09T07:50:32.722Z,11.53
2018-08-09T07:53:00.913Z,12.30
2018-08-09T07:55:29.181Z,13.93
2018-08-09T07:57:57.344Z,11.97
2018-08-09T08:00:25.562Z,11.57
2018-08-09T08:02:53.800Z,12.17
2018-08-09T08:05:21.952Z,11.87
2018-08-09T08:07:50.101Z,11.20
2018-08-09T08:10:18.263Z,13.57
2018-08-09T08:12:46.417Z,11.37
2018-08-09T08:15:15.087Z,11.80
2018-08-09T08:17:43.243Z,12.77
2018-08-09T08:20:11.690Z,11.20
2018-08-09T08:22:40.879Z,11.83
2018-08-09T08:25:09.220Z,12.33
2018-08-09T08:27:37.377Z,11.50
2018-08-09T08:30:09.047Z,11.67
2018-08-09T08:32:37.282Z,13.73
2018-08-09T08:35:05.611Z,10.27
2018-08-09T08:37:33.724Z,10.30
2018-08-09T08:40:01.873Z,11.20
2018-08-09T08:42:30.002Z,10.97
2018-08-09T08:44:58.137Z,12.07
2018-08-09T08:47:26.360Z,10.67
2018-08-09T08:49:54.451Z,10.03
2018-08-09T08:52:22.651Z,10.57
2018-08-09T08:54:50.794Z,10.00
2018-08-09T08:57:18.953Z,10.80
2018-08-09T08:59:47.138Z,10.80
2018-08-09T09:02:15.274Z,10.67
2018-08-09T09:04:43.580Z,10.50
2018-08-09T09:07:12.447Z,10.40
2018-08-09T09:09:40.545Z,9.87
2018-08-09T09:12:08.661Z,10.67
2018-08-09T09:14:36.799Z,10.70
2018-08-09T09:17:04.933Z,9.90
2018-08-09T09:19:33.102Z,10.90
2018-08-09T09:22:01.220Z,10.07
2018-08-09T09:24:29.386Z,10.20
2018-08-09T09:26:57.551Z,9.87
2018-08-09T09:29:25.653Z,11.20
2018-08-09T09:31:54.410Z,9.70
2018-08-09T09:34:22.529Z,8.77
2018-08-09T09:36:50.701Z,8.70
2018-08-09T09:39:19.001Z,8.57
2018-08-09T09:41:47.133Z,11.30
2018-08-09T09:44:15.250Z,9.60
2018-08-09T09:46:43.369Z,11.53
2018-08-09T09:49:11.517Z,12.50
2018-08-09T09:51:39.652Z,9.10
2018-08-09T09:54:07.757Z,8.93
2018-08-09T09:56:35.902Z,8.90
2018-08-09T09:59:04.037Z,11.33
2018-08-09T10:01:35.529Z,9.10
2018-08-09T10:04:04.491Z,13.13
2018-08-09T10:06:32.978Z,8.50
2018-08-09T10:09:01.201Z,8.97
2018-08-09T10:11:29.480Z,8.20
2018-08-09T10:13:57.617Z,9.63
2018-08-09T10:16:25.757Z,9.17
2018-08-09T10:18:53.871Z,10.87
2018-08-09T10:21:22.009Z,15.40
2018-08-09T10:23:50.139Z,9.03
2018-08-09T10:26:18.345Z,10.63
2018-08-09T10:28:46.618Z,9.23
2018-08-09T10:31:14.783Z,13.17
2018-08-09T10:33:42.914Z,8.60
2018-08-09T10:36:11.066Z,11.63
2018-08-09T10:38:39.182Z,7.37
2018-08-09T10:41:07.509Z,12.10
2018-08-09T10:43:35.676Z,9.27
2018-08-09T10:46:03.834Z,16.40
2018-08-09T10:48:31.958Z,10.83
2018-08-09T10:51:00.223Z,9.67
2018-08-09T10:53:28.401Z,13.57
2018-08-09T10:55:56.569Z,8.77
2018-08-09T10:58:24.714Z,11.00
2018-08-09T11:00:52.862Z,7.90
2018-08-09T11:03:21.225Z,10.23
2018-08-09T11:05:49.370Z,10.80
2018-08-09T11:08:17.510Z,8.70
2018-08-09T11:10:45.751Z,7.00
2018-08-09T11:13:13.890Z,8.27
2018-08-09T11:15:42.053Z,8.40
2018-08-09T11:18:10.244Z,7.47
2018-08-09T11:20:38.492Z,7.87
2018-08-09T11:23:06.665Z,7.90
2018-08-09T11:25:34.835Z,9.90
2018-08-09T11:28:02.949Z,7.87
2018-08-09T11:30:31.126Z,8.37
2018-08-09T11:32:59.905Z,8.10
2018-08-09T11:35:28.042Z,8.27
2018-08-09T11:37:56.203Z,8.10
2018-08-09T11:40:24.371Z,7.67
2018-08-09T11:42:52.541Z,9.87
2018-08-09T11:45:20.710Z,8.60
2018-08-09T11:47:48.975Z,11.23
2018-08-09T11:50:17.133Z,17.50
2018-08-09T11:52:49.617Z,9.70
2018-08-09T11:55:17.797Z,9.87
2018-08-09T11:57:45.934Z,9.27
2018-08-09T12:00:14.056Z,12.37
2018-08-09T12:02:42.318Z,9.27
2018-08-09T12:05:10.450Z,12.30
2018-08-09T12:07:38.674Z,15.70
2018-08-09T12:10:06.923Z,8.60
2018-08-09T12:12:35.097Z,11.17
2018-08-09T12:15:03.267Z,10.63
2018-08-09T12:17:31.450Z,12.83
2018-08-09T12:20:00.028Z,7.37
2018-08-09T12:22:28.209Z,11.97
2018-08-09T12:24:56.356Z,7.13
2018-08-09T12:27:24.514Z,11.40
2018-08-09T12:29:52.672Z,9.53
2018-08-09T12:32:21.450Z,8.73
2018-08-09T12:34:49.728Z,13.03
2018-08-09T12:37:17.938Z,10.00
2018-08-09T12:39:46.131Z,12.93
2018-08-09T12:42:14.308Z,16.40
2018-08-09T12:44:42.459Z,10.23
2018-08-09T12:47:11.272Z,9.67
2018-08-09T12:49:39.413Z,8.70
2018-08-09T12:52:07.614Z,8.90
2018-08-09T12:54:35.742Z,9.77
2018-08-09T12:57:03.893Z,13.87
2018-08-09T12:59:32.021Z,11.40
2018-08-09T13:02:00.211Z,7.70
2018-08-09T13:04:28.336Z,13.53
2018-08-09T13:06:56.485Z,12.37
2018-08-09T13:09:24.732Z,7.50
2018-08-09T13:11:52.890Z,7.37
2018-08-09T13:14:21.029Z,7.87
2018-08-09T13:16:49.252Z,7.60
2018-08-09T13:19:17.362Z,9.17
2018-08-09T13:21:45.498Z,8.30
2018-08-09T13:24:13.675Z,10.40
2018-08-09T13:26:41.872Z,14.73
2018-08-09T13:29:10.138Z,9.33
2018-08-09T13:31:38.348Z,8.87
2018-08-09T13:34:06.638Z,9.70
2018-08-09T13:36:34.814Z,10.10
2018-08-09T13:39:02.982Z,9.50
2018-08-09T13:41:31.107Z,8.70
2018-08-09T13:43:59.250Z,9.10
2018-08-09T13:46:27.382Z,7.10
2018-08-09T13:48:55.527Z,9.30
2018-08-09T13:51:23.689Z,9.57
2018-08-09T13:53:51.807Z,8.13
2018-08-09T13:56:19.926Z,12.40
2018-08-09T13:58:48.070Z,9.20
2018-08-09T14:01:16.205Z,10.50
2018-08-09T14:03:44.339Z,9.13
2018-08-09T14:06:12.458Z,9.73
2018-08-09T14:08:40.582Z,7.70
2018-08-09T14:11:08.710Z,9.73
2018-08-09T14:13:36.858Z,9.57
2018-08-09T14:16:05.042Z,10.70
2018-08-09T14:18:33.148Z,7.77
2018-08-09T14:21:01.278Z,8.77
2018-08-09T14:23:29.416Z,38.73
2018-08-09T14:25:57.566Z,10.50
2018-08-09T14:28:25.741Z,11.30
2018-08-09T14:30:53.896Z,12.47
2018-08-09T14:33:22.043Z,13.43
2018-08-09T14:35:50.182Z,13.23
2018-08-09T14:38:18.325Z,14.47
2018-08-09T14:40:46.436Z,14.53
2018-08-09T14:43:14.599Z,14.33
2018-08-09T14:45:42.744Z,14.77
2018-08-09T14:48:10.865Z,13.87
2018-08-09T14:50:38.988Z,14.03
2018-08-09T14:53:07.121Z,13.40
2018-08-09T14:55:35.257Z,12.67
2018-08-09T14:58:03.414Z,14.50
2018-08-09T15:00:31.551Z,12.77
2018-08-09T15:02:59.693Z,13.37
2018-08-09T15:05:27.838Z,12.90
2018-08-09T15:07:55.987Z,13.50
2018-08-09T15:10:24.133Z,12.60
2018-08-09T15:12:52.274Z,11.27
2018-08-09T15:15:20.405Z,13.03
2018-08-09T15:17:48.795Z,11.87
2018-08-09T15:20:16.946Z,12.50
2018-08-09T15:22:45.117Z,13.57
2018-08-09T15:25:13.241Z,11.70
2018-08-09T15:27:41.706Z,10.83
2018-08-09T15:30:12.016Z,9.90
2018-08-09T15:32:40.114Z,11.40
2018-08-09T15:35:08.381Z,10.30
2018-08-09T15:37:36.760Z,11.90
2018-08-09T15:40:05.622Z,9.67
2018-08-09T15:42:33.763Z,13.13
2018-08-09T15:45:01.903Z,8.67
2018-08-09T15:47:30.153Z,9.03
2018-08-09T15:49:58.175Z,10.20
2018-08-09T15:52:26.334Z,10.23
2018-08-09T15:54:54.490Z,18.30
2018-08-09T15:57:22.631Z,15.80
2018-08-09T15:59:50.786Z,10.00
2018-08-09T16:02:18.994Z,8.67
2018-08-09T16:04:47.058Z,9.37
2018-08-09T16:07:15.212Z,8.23
2018-08-09T16:09:43.351Z,14.50
2018-08-09T16:12:11.482Z,13.13
2018-08-09T16:14:39.612Z,11.83
2018-08-09T16:17:08.086Z,17.60
2018-08-09T16:19:36.243Z,13.23
2018-08-09T16:22:04.414Z,13.23
2018-08-09T16:24:32.650Z,20.83
2018-08-09T16:27:03.993Z,14.33
2018-08-09T16:29:32.149Z,20.47
2018-08-09T16:32:00.306Z,19.73
2018-08-09T16:34:28.461Z,18.37
2018-08-09T16:36:56.604Z,18.33
2018-08-09T16:39:24.769Z,18.00
2018-08-09T16:41:52.915Z,18.30
2018-08-09T16:44:21.073Z,17.10
2018-08-09T16:46:49.225Z,17.10
2018-08-09T16:49:17.401Z,12.70
2018-08-09T16:51:45.536Z,15.70
2018-08-09T16:54:14.677Z,14.80
2018-08-09T16:56:42.852Z,12.70
2018-08-09T16:59:11.003Z,18.60
2018-08-09T17:01:39.178Z,12.30
2018-08-09T17:04:07.422Z,12.23
2018-08-09T17:06:35.569Z,12.63
2018-08-09T17:09:08.942Z,12.83
2018-08-09T17:11:41.325Z,13.63
2018-08-09T17:14:09.493Z,11.67
2018-08-09T17:16:37.638Z,11.90
2018-08-09T17:19:06.154Z,11.50
2018-08-09T17:21:34.359Z,10.80
2018-08-09T17:24:02.514Z,9.60
2018-08-09T17:26:30.734Z,9.13
2018-08-09T17:28:58.885Z,9.60
2018-08-09T17:31:27.198Z,9.93
2018-08-09T17:33:55.371Z,10.33
2018-08-09T17:36:23.516Z,9.77
2018-08-09T17:38:51.660Z,8.70
2018-08-09T17:41:19.814Z,9.57
2018-08-09T17:43:47.951Z,10.10
2018-08-09T17:46:16.134Z,8.50
2018-08-09T17:48:44.363Z,7.50
2018-08-09T17:51:12.500Z,6.10
2018-08-09T17:53:40.674Z,6.70
2018-08-09T17:56:08.827Z,6.70
2018-08-09T17:58:36.975Z,6.70
2018-08-09T18:01:05.125Z,6.00
2018-08-09T18:03:33.270Z,8.40
2018-08-09T18:06:01.423Z,7.53
2018-08-09T18:08:29.560Z,6.63
2018-08-09T18:10:57.693Z,6.80
2018-08-09T18:13:25.842Z,6.47
2018-08-09T18:15:54.125Z,5.40
2018-08-09T18:18:22.298Z,5.97
2018-08-09T18:20:50.454Z,7.77
2018-08-09T18:23:18.573Z,5.70
2018-08-09T18:25:50.294Z,6.50
2018-08-09T18:28:18.451Z,6.33
2018-08-09T18:30:46.629Z,5.80
2018-08-09T18:33:14.878Z,6.33
2018-08-09T18:35:43.046Z,7.30
2018-08-09T18:38:11.212Z,4.93
2018-08-09T18:40:39.383Z,5.13
2018-08-09T18:43:07.568Z,6.00
2018-08-09T18:45:35.863Z,4.80
2018-08-09T18:48:04.062Z,5.00
2018-08-09T18:50:32.573Z,5.30
2018-08-09T18:53:00.723Z,5.00
2018-08-09T18:55:28.870Z,4.77
2018-08-09T18:57:57.059Z,4.80
2018-08-09T19:00:27.025Z,5.70
2018-08-09T19:02:55.314Z,4.90
2018-08-09T19:05:23.593Z,5.13
2018-08-09T19:07:51.753Z,5.67
2018-08-09T19:10:22.093Z,8.43
2018-08-09T19:12:50.294Z,4.70
2018-08-09T19:15:18.653Z,6.40
2018-08-09T19:17:46.789Z,5.30
2018-08-09T19:20:26.948Z,4.60
2018-08-09T19:22:55.210Z,4.70
2018-08-09T19:25:23.407Z,4.60
2018-08-09T19:27:51.575Z,5.40
2018-08-09T19:30:21.362Z,5.37
2018-08-09T19:32:49.534Z,5.10
2018-08-09T19:35:18.616Z,4.90
2018-08-09T19:37:46.782Z,5.37
2018-08-09T19:40:18.326Z,7.93
2018-08-09T19:42:46.486Z,5.80
2018-08-09T19:45:18.536Z,6.73
2018-08-09T19:47:46.722Z,6.57
2018-08-09T19:50:18.275Z,5.93
2018-08-09T19:52:47.429Z,6.33
2018-08-09T19:55:18.305Z,6.40
2018-08-09T19:57:49.356Z,6.40
2018-08-09T20:00:19.855Z,5.90
2018-08-09T20:02:49.736Z,6.77
2018-08-09T20:05:17.940Z,6.17
2018-08-09T20:07:46.094Z,6.73
2018-08-09T20:10:14.801Z,6.37
2018-08-09T20:12:43.605Z,6.17
2018-08-09T20:15:14.482Z,6.20
2018-08-09T20:17:42.638Z,6.00
2018-08-09T20:20:12.270Z,6.83
2018-08-09T20:22:40.454Z,6.13
2018-08-09T20:25:09.898Z,6.67
2018-08-09T20:27:38.229Z,5.90
2018-08-09T20:30:08.347Z,6.70
2018-08-09T20:32:36.529Z,5.53
2018-08-09T20:35:07.880Z,6.67
2018-08-09T20:37:36.036Z,6.17
2018-08-09T20:40:05.536Z,6.17
2018-08-09T20:42:33.677Z,6.17
2018-08-09T20:45:01.831Z,5.90
2018-08-09T20:47:30.059Z,5.20
2018-08-09T20:49:58.505Z,6.40
2018-08-09T20:52:26.651Z,6.10
2018-08-09T20:54:54.810Z,4.90
2018-08-09T20:57:22.943Z,5.33
2018-08-09T20:59:51.208Z,5.50
2018-08-09T21:02:19.337Z,5.77
2018-08-09T21:04:47.492Z,4.67
2018-08-09T21:07:15.653Z,4.83
2018-08-09T21:09:43.817Z,5.00
2018-08-09T21:12:11.964Z,5.00
2018-08-09T21:14:40.160Z,7.40
2018-08-09T21:17:08.301Z,4.40
2018-08-09T21:19:36.463Z,4.37
2018-08-09T21:22:04.665Z,4.50
2018-08-09T21:24:32.831Z,4.47
2018-08-09T21:27:00.986Z,5.00
2018-08-09T21:29:29.136Z,4.93
2018-08-09T21:31:57.306Z,5.50
2018-08-09T21:34:25.542Z,4.93
2018-08-09T21:36:53.588Z,4.00
2018-08-09T21:39:21.746Z,4.23
2018-08-09T21:41:49.896Z,5.20
2018-08-09T21:44:18.061Z,5.10
2018-08-09T21:46:46.205Z,6.23
2018-08-09T21:49:14.377Z,4.00
2018-08-09T21:51:42.528Z,4.10
2018-08-09T21:54:10.706Z,4.73
2018-08-09T21:56:38.869Z,4.33
2018-08-09T21:59:07.036Z,4.20
2018-08-09T22:01:35.214Z,3.90
2018-08-09T22:04:08.553Z,3.67
2018-08-09T22:06:42.194Z,3.73
2018-08-09T22:09:15.797Z,4.13
2018-08-09T22:11:49.425Z,4.43
2018-08-09T22:14:22.829Z,4.00
2018-08-09T22:16:56.434Z,4.27
2018-08-09T22:19:31.958Z,4.13
2018-08-09T22:22:08.451Z,4.03
2018-08-09T22:24:36.643Z,4.23
2018-08-09T22:27:05.690Z,3.80
2018-08-09T22:29:33.871Z,4.27
2018-08-09T22:32:07.027Z,3.97
2018-08-09T22:34:35.208Z,3.90
2018-08-09T22:37:03.402Z,3.77
2018-08-09T22:39:31.565Z,3.77
2018-08-09T22:41:59.746Z,3.47
2018-08-09T22:44:27.925Z,4.07
2018-08-09T22:46:56.107Z,3.60
2018-08-09T22:49:24.305Z,4.53
2018-08-09T22:51:52.541Z,4.37
2018-08-09T22:54:20.741Z,3.90
2018-08-09T22:56:48.946Z,4.50
2018-08-09T22:59:17.241Z,4.67
2018-08-09T23:01:45.420Z,3.80
2018-08-09T23:04:13.734Z,3.80
2018-08-09T23:06:41.997Z,4.03
2018-08-09T23:09:11.141Z,3.67
2018-08-09T23:11:39.433Z,3.50
2018-08-09T23:14:07.585Z,3.63
2018-08-09T23:16:35.877Z,3.47
2018-08-09T23:19:04.046Z,3.83
2018-08-09T23:21:32.215Z,3.63
2018-08-09T23:24:00.383Z,5.50
2018-08-09T23:26:28.742Z,5.03
2018-08-09T23:28:56.990Z,3.47
2018-08-09T23:31:25.172Z,3.23
2018-08-09T23:33:53.329Z,3.43
2018-08-09T23:36:26.043Z,3.60
2018-08-09T23:38:54.190Z,2.40
2018-08-09T23:41:22.365Z,3.30
2018-08-09T23:43:50.534Z,3.37
2018-08-09T23:46:18.694Z,3.30
2018-08-09T23:48:46.889Z,3.83
2018-08-09T23:51:15.037Z,3.53
2018-08-09T23:53:43.194Z,3.23
2018-08-09T23:56:11.365Z,3.53
2018-08-09T23:58:39.528Z,3.00
